Time;durP1;ratioP1;P1;durP2;ratioP2;P2;SDS_P1;SDS_P2;PMS_P1;PMS_P2;Temp;Humidity;BMP_temperature;BMP_pressure;BME280_temperature;BME280_humidity;BME280_pressure;Samples;Min_cycle;Max_cycle;Signal;HPM_P1;HPM_P2
2024/01/12 00:00:18;;;;;;;26.77;16.10;;;;;;;;;;5073616;28;20292;-65
2024/01/12 00:02:45;;;;;;;25.50;16.58;;;;;;;;;;5073519;28;20272;-65
2024/01/12 00:05:12;;;;;;;26.00;17.30;;;;;;;;;;5073718;28;20579;-66
2024/01/12 00:07:39;;;;;;;24.10;15.82;;;;;;;;;;5073667;28;20232;-66
2024/01/12 00:10:08;;;;;;;25.05;16.50;;;;;;;;;;5073216;28;20197;-66
2024/01/12 00:12:35;;;;;;;27.08;16.10;;;;;;;;;;5073511;28;20189;-66
2024/01/12 00:15:02;;;;;;;28.33;17.13;;;;;;;;;;5073403;28;20200;-65
2024/01/12 00:17:29;;;;;;;25.83;15.90;;;;;;;;;;5072538;28;20221;-66
2024/01/12 00:19:56;;;;;;;23.42;14.85;;;;;;;;;;5072982;28;20196;-66
2024/01/12 00:22:23;;;;;;;23.95;14.80;;;;;;;;;;5073444;28;20193;-65
2024/01/12 00:24:50;;;;;;;23.08;15.90;;;;;;;;;;5072957;28;20370;-66
2024/01/12 00:27:18;;;;;;;22.83;14.80;;;;;;;;;;5073284;28;20277;-66
2024/01/12 00:29:45;;;;;;;25.98;16.70;;;;;;;;;;5073450;28;20196;-66
2024/01/12 00:32:12;;;;;;;25.50;16.58;;;;;;;;;;5073084;28;20272;-66
2024/01/12 00:34:39;;;;;;;23.30;15.30;;;;;;;;;;5072994;28;20192;-66
2024/01/12 00:37:06;;;;;;;21.05;15.38;;;;;;;;;;5072980;28;20280;-66
2024/01/12 00:39:35;;;;;;;24.15;15.18;;;;;;;;;;5073362;28;20194;-66
2024/01/12 00:42:02;;;;;;;21.17;14.30;;;;;;;;;;5073093;28;20196;-65
2024/01/12 00:44:30;;;;;;;24.88;15.00;;;;;;;;;;5073024;28;20193;-65
2024/01/12 00:46:57;;;;;;;23.00;15.20;;;;;;;;;;5073049;28;20217;-66
2024/01/12 00:49:24;;;;;;;23.83;14.27;;;;;;;;;;5073323;28;20493;-66
2024/01/12 00:51:51;;;;;;;25.70;17.58;;;;;;;;;;5072766;28;20225;-66
2024/01/12 00:54:20;;;;;;;24.70;14.73;;;;;;;;;;5072740;28;20240;-66
2024/01/12 00:56:47;;;;;;;27.40;16.80;;;;;;;;;;5072900;28;20548;-66
2024/01/12 00:59:14;;;;;;;28.42;17.10;;;;;;;;;;5072867;28;20185;-65
2024/01/12 01:01:42;;;;;;;28.17;16.38;;;;;;;;;;5072829;28;20284;-66
2024/01/12 01:04:09;;;;;;;31.65;16.85;;;;;;;;;;5072664;28;20611;-66
2024/01/12 01:06:36;;;;;;;25.20;15.48;;;;;;;;;;5072536;28;20687;-66
2024/01/12 01:09:03;;;;;;;25.17;15.63;;;;;;;;;;5072790;28;20185;-66
2024/01/12 01:11:30;;;;;;;22.58;15.43;;;;;;;;;;5072691;28;20272;-66
2024/01/12 01:13:57;;;;;;;24.90;15.00;;;;;;;;;;5072763;28;20238;-65
2024/01/12 01:16:24;;;;;;;23.63;14.45;;;;;;;;;;5072512;28;20652;-66
2024/01/12 01:18:52;;;;;;;19.48;14.60;;;;;;;;;;5072686;28;20267;-65
2024/01/12 01:21:19;;;;;;;21.83;13.70;;;;;;;;;;5072609;28;20221;-66
2024/01/12 01:23:46;;;;;;;22.30;13.57;;;;;;;;;;5072707;28;20708;-65
2024/01/12 01:26:13;;;;;;;21.30;13.88;;;;;;;;;;5072721;28;20217;-65
2024/01/12 01:28:40;;;;;;;20.60;13.35;;;;;;;;;;5074981;28;20185;-65
2024/01/12 01:31:07;;;;;;;22.02;13.32;;;;;;;;;;5076690;28;20280;-66
2024/01/12 01:33:33;;;;;;;22.02;12.93;;;;;;;;;;5076257;28;20326;-65
2024/01/12 01:36:02;;;;;;;21.02;13.27;;;;;;;;;;5076459;28;20267;-65
2024/01/12 01:38:29;;;;;;;24.63;13.75;;;;;;;;;;5076145;28;20193;-66
2024/01/12 01:40:56;;;;;;;15.50;11.80;;;;;;;;;;5076226;28;20197;-66
2024/01/12 01:43:23;;;;;;;20.85;13.10;;;;;;;;;;5076031;28;20185;-65
2024/01/12 01:45:50;;;;;;;22.67;13.38;;;;;;;;;;5075993;28;20213;-66
2024/01/12 01:48:17;;;;;;;22.40;13.10;;;;;;;;;;5076060;28;20667;-66
2024/01/12 01:50:44;;;;;;;18.20;12.70;;;;;;;;;;5076104;28;20278;-66
2024/01/12 01:53:12;;;;;;;17.50;11.23;;;;;;;;;;5076159;28;20202;-66
2024/01/12 01:55:39;;;;;;;19.50;12.05;;;;;;;;;;5075937;28;20197;-66
2024/01/12 01:58:06;;;;;;;20.00;13.27;;;;;;;;;;5075775;28;20190;-66
2024/01/12 02:00:34;;;;;;;22.33;12.55;;;;;;;;;;5076446;28;20193;-66
2024/01/12 02:03:01;;;;;;;23.95;12.88;;;;;;;;;;5075951;28;20185;-66
2024/01/12 02:05:30;;;;;;;22.40;12.93;;;;;;;;;;5075720;28;20213;-66
2024/01/12 02:07:57;;;;;;;20.02;11.75;;;;;;;;;;5075724;28;20276;-66
2024/01/12 02:10:25;;;;;;;17.08;11.95;;;;;;;;;;5075653;28;20279;-66
2024/01/12 02:12:52;;;;;;;18.20;12.05;;;;;;;;;;5075573;28;20192;-66
2024/01/12 02:15:19;;;;;;;18.08;11.70;;;;;;;;;;5075469;28;20233;-66
2024/01/12 02:17:47;;;;;;;18.80;12.10;;;;;;;;;;5075651;28;20276;-66
2024/01/12 02:20:14;;;;;;;16.60;10.98;;;;;;;;;;5075363;28;20221;-66
2024/01/12 02:22:42;;;;;;;15.10;10.77;;;;;;;;;;5075752;28;20193;-66
2024/01/12 02:25:10;;;;;;;15.73;10.65;;;;;;;;;;5075285;28;20199;-66
2024/01/12 02:27:37;;;;;;;13.60;9.73;;;;;;;;;;5075202;28;20614;-66
2024/01/12 02:30:05;;;;;;;17.73;10.40;;;;;;;;;;5075479;28;20186;-66
2024/01/12 02:32:32;;;;;;;12.73;10.02;;;;;;;;;;5075366;28;20221;-66
2024/01/12 02:34:58;;;;;;;11.90;8.55;;;;;;;;;;5075255;28;20189;-66
2024/01/12 02:37:25;;;;;;;11.45;8.82;;;;;;;;;;5075172;28;20195;-66
2024/01/12 02:39:54;;;;;;;11.95;8.43;;;;;;;;;;5074111;28;20669;-66
2024/01/12 02:42:21;;;;;;;13.05;8.93;;;;;;;;;;5075206;28;20221;-66
2024/01/12 02:44:47;;;;;;;14.10;9.10;;;;;;;;;;5075504;28;20280;-66
2024/01/12 02:47:14;;;;;;;16.83;9.05;;;;;;;;;;5075010;28;20305;-66
2024/01/12 02:49:43;;;;;;;13.57;9.20;;;;;;;;;;5075008;28;20189;-66
2024/01/12 02:52:10;;;;;;;13.38;9.00;;;;;;;;;;5074941;28;20732;-66
2024/01/12 02:54:37;;;;;;;14.63;8.57;;;;;;;;;;5074699;28;20445;-66
2024/01/12 02:57:05;;;;;;;17.65;10.32;;;;;;;;;;5074727;28;20235;-66
2024/01/12 02:59:32;;;;;;;15.23;10.15;;;;;;;;;;5074835;28;20427;-66
2024/01/12 03:01:59;;;;;;;15.93;10.40;;;;;;;;;;5074899;28;20197;-66
2024/01/12 03:04:26;;;;;;;16.58;10.80;;;;;;;;;;5074876;28;20193;-66
2024/01/12 03:06:53;;;;;;;18.00;10.50;;;;;;;;;;5074466;28;20219;-66
2024/01/12 03:09:20;;;;;;;15.38;10.10;;;;;;;;;;5074419;28;20280;-66
2024/01/12 03:11:47;;;;;;;13.27;9.50;;;;;;;;;;5074643;28;20193;-66
2024/01/12 03:14:15;;;;;;;15.85;9.85;;;;;;;;;;5074758;28;20603;-66
2024/01/12 03:16:42;;;;;;;14.63;9.98;;;;;;;;;;5074459;28;20292;-66
2024/01/12 03:19:09;;;;;;;15.38;10.13;;;;;;;;;;5074327;28;20272;-66
2024/01/12 03:21:36;;;;;;;14.57;9.80;;;;;;;;;;5074282;28;20213;-66
2024/01/12 03:24:03;;;;;;;15.73;9.02;;;;;;;;;;5074142;28;20272;-66
2024/01/12 03:26:30;;;;;;;14.60;8.57;;;;;;;;;;5074288;28;20217;-66
2024/01/12 03:28:57;;;;;;;10.00;7.20;;;;;;;;;;5074219;28;20526;-66
2024/01/12 03:31:25;;;;;;;13.48;8.38;;;;;;;;;;5074016;28;20185;-66
2024/01/12 03:33:52;;;;;;;12.27;9.30;;;;;;;;;;5074042;28;20295;-66
2024/01/12 03:36:20;;;;;;;11.65;8.65;;;;;;;;;;5073881;28;20292;-66
2024/01/12 03:38:48;;;;;;;14.18;9.98;;;;;;;;;;5074034;28;20284;-66
2024/01/12 03:41:15;;;;;;;13.20;9.52;;;;;;;;;;5073943;28;20272;-66
2024/01/12 03:43:42;;;;;;;12.93;8.82;;;;;;;;;;5074192;28;20279;-66
2024/01/12 03:46:09;;;;;;;10.27;8.65;;;;;;;;;;5073833;28;20576;-66
2024/01/12 03:48:39;;;;;;;13.50;7.80;;;;;;;;;;5074112;28;20272;-66
2024/01/12 03:51:06;;;;;;;12.13;9.35;;;;;;;;;;5073719;28;20601;-66
2024/01/12 03:53:33;;;;;;;12.93;9.85;;;;;;;;;;5073857;28;20649;-66
2024/01/12 03:56:00;;;;;;;16.33;8.50;;;;;;;;;;5073532;28;20228;-66
2024/01/12 03:58:27;;;;;;;14.38;10.00;;;;;;;;;;5073565;28;20189;-66
2024/01/12 04:00:54;;;;;;;14.13;9.35;;;;;;;;;;5073521;28;20229;-66
2024/01/12 04:03:20;;;;;;;14.65;9.00;;;;;;;;;;5073366;28;20195;-66
2024/01/12 04:05:49;;;;;;;11.93;9.18;;;;;;;;;;5073242;28;20189;-66
2024/01/12 04:08:16;;;;;;;14.00;9.50;;;;;;;;;;5073385;28;20193;-66
2024/01/12 04:10:43;;;;;;;14.73;9.68;;;;;;;;;;5073634;28;20277;-66
2024/01/12 04:13:10;;;;;;;15.68;10.50;;;;;;;;;;5073203;28;20280;-66
2024/01/12 04:15:37;;;;;;;13.52;9.90;;;;;;;;;;5073310;28;20196;-66
2024/01/12 04:18:04;;;;;;;15.98;9.93;;;;;;;;;;5073129;28;20243;-66
2024/01/12 04:20:31;;;;;;;16.42;10.38;;;;;;;;;;5073287;28;20221;-66
2024/01/12 04:22:59;;;;;;;16.38;11.10;;;;;;;;;;5073268;28;20193;-66
2024/01/12 04:25:26;;;;;;;20.25;10.98;;;;;;;;;;5073198;28;20279;-66
2024/01/12 04:27:53;;;;;;;13.70;10.00;;;;;;;;;;5072979;28;20652;-66
2024/01/12 04:30:20;;;;;;;14.02;9.57;;;;;;;;;;5073075;28;20283;-66
2024/01/12 04:32:47;;;;;;;16.50;10.43;;;;;;;;;;5072889;28;20225;-66
2024/01/12 04:35:14;;;;;;;16.40;9.95;;;;;;;;;;5073085;28;20280;-66
2024/01/12 04:37:41;;;;;;;12.52;9.02;;;;;;;;;;5073073;28;20740;-66
2024/01/12 04:40:10;;;;;;;12.43;9.07;;;;;;;;;;5073022;28;20280;-66
2024/01/12 04:42:37;;;;;;;20.02;14.55;;;;;;;;;;5072955;28;20189;-64
2024/01/12 04:45:04;;;;;;;21.40;11.40;;;;;;;;;;5073262;28;20189;-66
2024/01/12 04:47:31;;;;;;;17.73;12.70;;;;;;;;;;5073037;28;20311;-66
2024/01/12 04:49:58;;;;;;;18.48;11.27;;;;;;;;;;5073018;28;20620;-66
2024/01/12 04:52:25;;;;;;;26.42;16.23;;;;;;;;;;5073069;28;20283;-66
2024/01/12 04:54:52;;;;;;;25.40;16.58;;;;;;;;;;5072820;28;20236;-66
2024/01/12 04:57:20;;;;;;;21.60;13.43;;;;;;;;;;5072709;28;20189;-67
2024/01/12 04:59:47;;;;;;;20.10;13.63;;;;;;;;;;5072615;28;20589;-66
2024/01/12 05:02:14;;;;;;;19.70;13.15;;;;;;;;;;5072920;28;20185;-66
2024/01/12 05:04:41;;;;;;;20.92;11.45;;;;;;;;;;5076979;28;20279;-66
2024/01/12 05:07:08;;;;;;;18.50;13.13;;;;;;;;;;5076856;28;20294;-66
2024/01/12 05:09:35;;;;;;;16.40;11.45;;;;;;;;;;5076755;28;20275;-66
2024/01/12 05:12:04;;;;;;;15.23;11.27;;;;;;;;;;5076690;28;20276;-66
2024/01/12 05:14:32;;;;;;;17.17;10.15;;;;;;;;;;5076554;28;20189;-66
2024/01/12 05:16:59;;;;;;;14.60;10.00;;;;;;;;;;5076839;28;20624;-66
2024/01/12 05:19:26;;;;;;;15.15;10.20;;;;;;;;;;5076744;28;20191;-67
2024/01/12 05:21:53;;;;;;;16.00;9.77;;;;;;;;;;5076661;28;20307;-66
2024/01/12 05:24:20;;;;;;;13.60;9.80;;;;;;;;;;5076502;28;20284;-66
2024/01/12 05:26:47;;;;;;;12.90;9.35;;;;;;;;;;5076232;28;20754;-66
2024/01/12 05:29:14;;;;;;;13.63;9.38;;;;;;;;;;5076479;28;20292;-66
2024/01/12 05:31:43;;;;;;;14.50;9.20;;;;;;;;;;5076479;28;20276;-66
2024/01/12 05:34:11;;;;;;;13.90;9.07;;;;;;;;;;5076317;28;20247;-66
2024/01/12 05:36:37;;;;;;;15.00;10.20;;;;;;;;;;5076238;28;20280;-64
2024/01/12 05:39:05;;;;;;;15.40;10.05;;;;;;;;;;5076195;28;20185;-64
2024/01/12 05:41:32;;;;;;;14.80;10.30;;;;;;;;;;5076113;28;20185;-64
2024/01/12 05:43:59;;;;;;;15.55;9.88;;;;;;;;;;5076217;28;20189;-64
2024/01/12 05:46:26;;;;;;;15.70;9.52;;;;;;;;;;5076166;28;20635;-64
2024/01/12 05:48:54;;;;;;;14.80;10.20;;;;;;;;;;5076103;28;20293;-64
2024/01/12 05:51:21;;;;;;;14.40;9.82;;;;;;;;;;5075906;28;20198;-65
2024/01/12 05:53:48;;;;;;;17.67;11.63;;;;;;;;;;5075845;28;20193;-65
2024/01/12 05:56:15;;;;;;;15.52;10.85;;;;;;;;;;5076136;28;20756;-65
2024/01/12 05:58:42;;;;;;;14.32;10.45;;;;;;;;;;5075937;28;20276;-65
2024/01/12 06:01:09;;;;;;;16.90;10.98;;;;;;;;;;5075936;28;20280;-65
2024/01/12 06:03:36;;;;;;;13.77;9.80;;;;;;;;;;5075779;28;20189;-66
2024/01/12 06:06:04;;;;;;;16.55;11.68;;;;;;;;;;5075601;28;20276;-65
2024/01/12 06:08:31;;;;;;;16.38;10.77;;;;;;;;;;5075373;28;20696;-66
2024/01/12 06:10:58;;;;;;;15.73;10.38;;;;;;;;;;5075395;28;20190;-65
2024/01/12 06:13:25;;;;;;;20.77;11.82;;;;;;;;;;5075824;28;20276;-65
2024/01/12 06:15:52;;;;;;;15.57;11.10;;;;;;;;;;5075586;28;20196;-66
2024/01/12 06:18:19;;;;;;;16.90;11.50;;;;;;;;;;5075504;28;20252;-65
2024/01/12 06:20:46;;;;;;;18.38;11.10;;;;;;;;;;5075398;28;20312;-66
2024/01/12 06:23:14;;;;;;;16.73;10.90;;;;;;;;;;5075201;28;20741;-65
2024/01/12 06:25:41;;;;;;;12.75;9.75;;;;;;;;;;5075424;28;20284;-65
2024/01/12 06:28:08;;;;;;;17.80;11.35;;;;;;;;;;5075136;28;20221;-65
2024/01/12 06:30:35;;;;;;;16.48;11.32;;;;;;;;;;5075271;28;20189;-65
2024/01/12 06:33:02;;;;;;;17.35;11.90;;;;;;;;;;5075368;28;20272;-65
2024/01/12 06:35:29;;;;;;;15.50;10.70;;;;;;;;;;5075160;28;20192;-65
2024/01/12 06:37:57;;;;;;;15.02;9.80;;;;;;;;;;5075199;28;20276;-65
2024/01/12 06:40:25;;;;;;;15.82;10.52;;;;;;;;;;5075229;28;20276;-65
2024/01/12 06:42:52;;;;;;;14.27;9.45;;;;;;;;;;5075138;28;20379;-65
2024/01/12 06:45:19;;;;;;;13.38;9.50;;;;;;;;;;5075028;28;20194;-65
2024/01/12 06:47:46;;;;;;;17.77;11.05;;;;;;;;;;5074727;28;20217;-65
2024/01/12 06:50:13;;;;;;;13.98;10.38;;;;;;;;;;5074682;28;20272;-65
2024/01/12 06:52:40;;;;;;;14.82;10.30;;;;;;;;;;5075005;28;20667;-65
2024/01/12 06:55:07;;;;;;;15.93;10.60;;;;;;;;;;5074912;28;20280;-65
2024/01/12 06:57:36;;;;;;;14.68;9.05;;;;;;;;;;5074789;28;20277;-65
2024/01/12 07:00:04;;;;;;;11.85;8.98;;;;;;;;;;5074669;28;20272;-65
2024/01/12 07:02:31;;;;;;;14.85;9.98;;;;;;;;;;5074514;28;20193;-65
2024/01/12 07:04:58;;;;;;;13.90;9.95;;;;;;;;;;5074711;28;20189;-65
2024/01/12 07:07:24;;;;;;;16.13;11.48;;;;;;;;;;5074577;28;20279;-65
2024/01/12 07:09:51;;;;;;;13.57;10.02;;;;;;;;;;5074474;28;20285;-65
2024/01/12 07:12:18;;;;;;;15.02;11.18;;;;;;;;;;5074384;28;20280;-65
2024/01/12 07:14:47;;;;;;;13.70;10.43;;;;;;;;;;5074400;28;20281;-65
2024/01/12 07:17:13;;;;;;;15.35;11.30;;;;;;;;;;5074279;28;20299;-65
2024/01/12 07:19:43;;;;;;;15.00;11.55;;;;;;;;;;5074453;28;20508;-65
2024/01/12 07:22:10;;;;;;;16.50;12.48;;;;;;;;;;5074047;28;20317;-65
2024/01/12 07:24:37;;;;;;;17.33;11.98;;;;;;;;;;5074370;28;20189;-65
2024/01/12 07:27:04;;;;;;;22.85;13.32;;;;;;;;;;5073440;28;20219;-66
2024/01/12 07:29:31;;;;;;;18.52;13.63;;;;;;;;;;5074071;28;20228;-65
2024/01/12 07:31:59;;;;;;;21.20;14.40;;;;;;;;;;5074143;28;20200;-65
2024/01/12 07:34:26;;;;;;;21.15;15.27;;;;;;;;;;5074122;28;20185;-65
2024/01/12 07:36:53;;;;;;;19.80;13.05;;;;;;;;;;5074018;28;20189;-65
2024/01/12 07:39:20;;;;;;;21.55;13.20;;;;;;;;;;5074322;28;20544;-65
2024/01/12 07:41:47;;;;;;;21.42;12.35;;;;;;;;;;5073819;28;20288;-65
2024/01/12 07:44:15;;;;;;;18.58;12.02;;;;;;;;;;5073684;28;20371;-65
2024/01/12 07:46:42;;;;;;;20.85;12.50;;;;;;;;;;5073656;28;20613;-65
2024/01/12 07:49:10;;;;;;;19.10;11.75;;;;;;;;;;5073499;28;20189;-65
2024/01/12 07:51:37;;;;;;;19.50;12.63;;;;;;;;;;5073690;28;20281;-65
2024/01/12 07:54:04;;;;;;;18.67;11.85;;;;;;;;;;5073560;28;20196;-65
2024/01/12 07:56:31;;;;;;;20.25;12.30;;;;;;;;;;5073529;28;20292;-66
2024/01/12 07:58:58;;;;;;;17.33;12.10;;;;;;;;;;5073601;28;20196;-65
2024/01/12 08:01:25;;;;;;;17.38;11.32;;;;;;;;;;5073413;28;20280;-65
2024/01/12 08:03:52;;;;;;;18.63;12.05;;;;;;;;;;5073335;28;20284;-66
2024/01/12 08:06:20;;;;;;;18.55;12.13;;;;;;;;;;5073301;28;20692;-66
2024/01/12 08:08:47;;;;;;;20.17;12.45;;;;;;;;;;5073131;28;20217;-65
2024/01/12 08:11:14;;;;;;;18.33;10.93;;;;;;;;;;5072963;28;20708;-65
2024/01/12 08:13:41;;;;;;;20.05;13.15;;;;;;;;;;5073306;28;20671;-65
2024/01/12 08:16:08;;;;;;;19.33;12.00;;;;;;;;;;5073199;28;20276;-65
2024/01/12 08:18:35;;;;;;;21.38;13.77;;;;;;;;;;5073061;28;20189;-65
2024/01/12 08:21:02;;;;;;;20.13;12.70;;;;;;;;;;5072972;28;20228;-66
2024/01/12 08:23:30;;;;;;;18.08;11.65;;;;;;;;;;5072994;28;20280;-66
2024/01/12 08:25:57;;;;;;;18.35;9.70;;;;;;;;;;5072854;28;20280;-63
2024/01/12 08:28:24;;;;;;;14.48;9.40;;;;;;;;;;5072939;28;20221;-66
2024/01/12 08:30:51;;;;;;;15.00;9.80;;;;;;;;;;5073019;28;20632;-64
2024/01/12 08:33:18;;;;;;;16.88;10.43;;;;;;;;;;5072937;28;20204;-65
2024/01/12 08:35:45;;;;;;;17.08;10.68;;;;;;;;;;5072712;28;20625;-62
2024/01/12 08:38:12;;;;;;;12.75;8.90;;;;;;;;;;5071898;28;20201;-65
2024/01/12 08:40:40;;;;;;;10.93;7.47;;;;;;;;;;5072682;28;20272;-66
2024/01/12 08:43:08;;;;;;;11.82;7.93;;;;;;;;;;5072975;28;20707;-66
2024/01/12 08:45:35;;;;;;;10.00;7.78;;;;;;;;;;5072685;28;20193;-65
2024/01/12 08:48:02;;;;;;;10.23;6.95;;;;;;;;;;5072698;28;20331;-63
2024/01/12 08:50:30;;;;;;;9.10;7.10;;;;;;;;;;5072704;28;20196;-62
2024/01/12 08:52:58;;;;;;;7.88;6.40;;;;;;;;;;5072498;28;20193;-63
2024/01/12 08:55:25;;;;;;;11.60;8.70;;;;;;;;;;5072667;28;20196;-64
2024/01/12 08:57:53;;;;;;;10.55;7.35;;;;;;;;;;5072877;28;20225;-64
2024/01/12 09:00:20;;;;;;;10.25;8.48;;;;;;;;;;5072877;28;20584;-63
2024/01/12 09:02:47;;;;;;;12.20;8.55;;;;;;;;;;5072762;28;20231;-67
2024/01/12 09:05:14;;;;;;;9.38;6.20;;;;;;;;;;5073291;28;20281;-66
2024/01/12 09:07:41;;;;;;;10.85;8.23;;;;;;;;;;5072484;28;20224;-67
2024/01/12 09:10:08;;;;;;;8.05;6.63;;;;;;;;;;5072830;28;20209;-63
2024/01/12 09:12:35;;;;;;;9.43;7.00;;;;;;;;;;5072314;28;20275;-64
2024/01/12 09:15:05;;;;;;;9.05;7.45;;;;;;;;;;5072742;28;20280;-64
2024/01/12 09:17:32;;;;;;;9.55;7.18;;;;;;;;;;5072449;28;20195;-63
2024/01/12 09:19:59;;;;;;;9.07;6.55;;;;;;;;;;5072201;28;20223;-63
2024/01/12 09:22:26;;;;;;;9.48;6.30;;;;;;;;;;5072058;28;20193;-62
2024/01/12 09:24:53;;;;;;;9.98;7.63;;;;;;;;;;5072480;28;20197;-66
2024/01/12 09:27:20;;;;;;;8.27;6.65;;;;;;;;;;5072231;28;20548;-63
2024/01/12 09:29:47;;;;;;;11.30;8.10;;;;;;;;;;5072336;28;20323;-66
2024/01/12 09:32:15;;;;;;;9.48;8.07;;;;;;;;;;5072195;28;20276;-65
2024/01/12 09:34:42;;;;;;;13.73;10.40;;;;;;;;;;5072180;28;20227;-69
2024/01/12 09:37:09;;;;;;;11.55;8.93;;;;;;;;;;5072467;28;20239;-64
2024/01/12 09:39:36;;;;;;;15.65;9.10;;;;;;;;;;5072281;28;20540;-70
2024/01/12 09:42:03;;;;;;;14.23;9.20;;;;;;;;;;5072116;28;20712;-66
2024/01/12 09:44:30;;;;;;;10.80;7.55;;;;;;;;;;5072118;28;20193;-67
2024/01/12 09:46:58;;;;;;;12.93;8.52;;;;;;;;;;5072098;28;20280;-69
2024/01/12 09:49:28;;;;;;;9.65;7.30;;;;;;;;;;5073791;28;20217;-65
2024/01/12 09:51:55;;;;;;;9.65;6.70;;;;;;;;;;5075609;28;20193;-65
2024/01/12 09:54:21;;;;;;;10.27;6.90;;;;;;;;;;5075768;28;20276;-64
2024/01/12 09:56:49;;;;;;;8.65;6.70;;;;;;;;;;5075789;28;20195;-63
2024/01/12 09:59:17;;;;;;;8.75;6.85;;;;;;;;;;5075764;28;20192;-66
2024/01/12 10:01:44;;;;;;;12.07;8.90;;;;;;;;;;5075759;28;20185;-65
2024/01/12 10:04:11;;;;;;;11.98;9.10;;;;;;;;;;5075574;28;20199;-64
2024/01/12 10:06:39;;;;;;;9.30;6.75;;;;;;;;;;5075689;28;20280;-67
2024/01/12 10:09:08;;;;;;;7.70;6.63;;;;;;;;;;5075579;28;20236;-65
2024/01/12 10:11:35;;;;;;;12.48;8.20;;;;;;;;;;5075504;28;20196;-65
2024/01/12 10:14:02;;;;;;;8.63;6.47;;;;;;;;;;5075660;28;20197;-63
2024/01/12 10:16:29;;;;;;;8.48;7.10;;;;;;;;;;5075356;28;20192;-63
2024/01/12 10:18:57;;;;;;;10.05;7.68;;;;;;;;;;5075417;28;20247;-64
2024/01/12 10:21:24;;;;;;;7.30;6.28;;;;;;;;;;5075157;28;20221;-64
2024/01/12 10:23:52;;;;;;;10.70;7.40;;;;;;;;;;5075439;28;20185;-64
2024/01/12 10:26:19;;;;;;;7.97;6.28;;;;;;;;;;5075293;28;20296;-65
2024/01/12 10:28:46;;;;;;;9.27;6.75;;;;;;;;;;5074996;28;20213;-64
2024/01/12 10:31:13;;;;;;;6.28;5.60;;;;;;;;;;5075040;28;20276;-68
2024/01/12 10:33:43;;;;;;;6.93;5.90;;;;;;;;;;5075231;28;20193;-69
2024/01/12 10:36:12;;;;;;;8.18;6.40;;;;;;;;;;5075112;28;20185;-68
2024/01/12 10:38:40;;;;;;;6.63;5.57;;;;;;;;;;5075062;28;20221;-63
2024/01/12 10:41:08;;;;;;;6.72;5.47;;;;;;;;;;5075092;28;20280;-65
2024/01/12 10:43:37;;;;;;;8.10;5.75;;;;;;;;;;5074765;28;20280;-65
2024/01/12 10:46:07;;;;;;;8.30;6.13;;;;;;;;;;5075334;28;20189;-65
2024/01/12 10:48:35;;;;;;;8.05;6.10;;;;;;;;;;5074782;28;20572;-66
2024/01/12 10:51:02;;;;;;;6.10;5.50;;;;;;;;;;5074832;28;20280;-65
2024/01/12 10:53:32;;;;;;;6.72;5.45;;;;;;;;;;5074754;28;20192;-68
2024/01/12 10:56:00;;;;;;;6.60;5.90;;;;;;;;;;5074572;28;20199;-67
2024/01/12 10:58:29;;;;;;;7.72;6.43;;;;;;;;;;5074871;28;20537;-68
2024/01/12 11:00:56;;;;;;;5.70;5.07;;;;;;;;;;5073748;28;20189;-68
2024/01/12 11:03:23;;;;;;;6.35;5.70;;;;;;;;;;5074639;28;20217;-66
2024/01/12 11:05:51;;;;;;;7.13;5.53;;;;;;;;;;5074417;28;20278;-63
2024/01/12 11:08:20;;;;;;;7.05;5.53;;;;;;;;;;5074230;28;20577;-62
2024/01/12 11:10:50;;;;;;;6.13;4.97;;;;;;;;;;5074433;28;20549;-63
2024/01/12 11:13:17;;;;;;;8.00;5.05;;;;;;;;;;5074426;28;20351;-62
2024/01/12 11:15:49;;;;;;;8.05;5.60;;;;;;;;;;5074323;28;20193;-62
2024/01/12 11:18:17;;;;;;;10.18;6.47;;;;;;;;;;5074347;28;20199;-62
2024/01/12 11:20:45;;;;;;;8.80;5.30;;;;;;;;;;5074033;28;20314;-62
2024/01/12 11:23:12;;;;;;;7.78;5.65;;;;;;;;;;5074076;28;20247;-62
2024/01/12 11:25:39;;;;;;;9.55;6.22;;;;;;;;;;5074323;28;20199;-62
2024/01/12 11:28:09;;;;;;;11.13;6.30;;;;;;;;;;5074114;28;20650;-63
2024/01/12 11:30:41;;;;;;;9.02;6.10;;;;;;;;;;5074000;28;20213;-62
2024/01/12 11:33:09;;;;;;;9.90;7.07;;;;;;;;;;5074061;28;20185;-62
2024/01/12 11:35:37;;;;;;;11.55;6.93;;;;;;;;;;5073636;28;20559;-62
2024/01/12 11:38:09;;;;;;;9.70;6.82;;;;;;;;;;5074130;28;20185;-63
2024/01/12 11:40:35;;;;;;;11.38;7.10;;;;;;;;;;5074093;28;20193;-63
2024/01/12 11:43:03;;;;;;;11.00;7.03;;;;;;;;;;5068826;28;20186;-62
2024/01/12 11:45:30;;;;;;;9.27;7.38;;;;;;;;;;5053583;28;20626;-63
2024/01/12 11:47:57;;;;;;;10.35;7.72;;;;;;;;;;5053870;28;20394;-63
2024/01/12 11:50:27;;;;;;;10.95;6.97;;;;;;;;;;5052642;28;20284;-62
2024/01/12 11:52:58;;;;;;;11.40;7.07;;;;;;;;;;5053346;28;20186;-62
2024/01/12 11:55:25;;;;;;;11.20;7.53;;;;;;;;;;5053257;28;20225;-62
2024/01/12 11:57:53;;;;;;;10.10;6.85;;;;;;;;;;5051277;28;20284;-62
2024/01/12 12:00:20;;;;;;;11.00;7.10;;;;;;;;;;5053729;28;20288;-62
2024/01/12 12:02:47;;;;;;;14.48;8.52;;;;;;;;;;5053367;28;20282;-62
2024/01/12 12:05:14;;;;;;;9.90;7.13;;;;;;;;;;5053530;28;20284;-62
2024/01/12 12:07:42;;;;;;;10.73;7.50;;;;;;;;;;5053465;28;20273;-62
2024/01/12 12:10:10;;;;;;;10.15;6.45;;;;;;;;;;5053239;28;20220;-63
2024/01/12 12:12:37;;;;;;;9.85;6.85;;;;;;;;;;5053199;28;20189;-62
2024/01/12 12:15:05;;;;;;;10.18;6.35;;;;;;;;;;5053151;28;20190;-62
2024/01/12 12:17:33;;;;;;;8.35;5.93;;;;;;;;;;5053285;28;20269;-62
2024/01/12 12:20:00;;;;;;;9.30;6.75;;;;;;;;;;5053078;28;20285;-62
2024/01/12 12:22:27;;;;;;;11.30;6.85;;;;;;;;;;5053238;28;20193;-62
2024/01/12 12:24:55;;;;;;;7.93;6.70;;;;;;;;;;5052943;28;20194;-62
2024/01/12 12:27:23;;;;;;;10.05;6.70;;;;;;;;;;5052962;28;20302;-62
2024/01/12 12:29:51;;;;;;;10.20;7.43;;;;;;;;;;5052804;28;20222;-62
2024/01/12 12:32:18;;;;;;;11.68;8.50;;;;;;;;;;5053040;28;20190;-62
2024/01/12 12:34:45;;;;;;;11.10;7.07;;;;;;;;;;5053114;28;20216;-62
2024/01/12 12:37:14;;;;;;;9.82;6.88;;;;;;;;;;5052882;28;20284;-62
2024/01/12 12:39:41;;;;;;;11.65;6.45;;;;;;;;;;5052854;28;20194;-62
2024/01/12 12:42:09;;;;;;;11.43;5.95;;;;;;;;;;5052842;28;20200;-62
2024/01/12 12:44:37;;;;;;;12.77;7.55;;;;;;;;;;5052904;28;20190;-62
2024/01/12 12:47:05;;;;;;;10.13;7.13;;;;;;;;;;5053062;28;20220;-62
2024/01/12 12:49:32;;;;;;;10.60;6.50;;;;;;;;;;5052996;28;20218;-63
2024/01/12 12:51:59;;;;;;;9.20;7.15;;;;;;;;;;5052854;28;20193;-62
2024/01/12 12:54:27;;;;;;;10.05;6.63;;;;;;;;;;5052759;28;20229;-62
2024/01/12 12:56:54;;;;;;;11.93;6.65;;;;;;;;;;5052723;28;20243;-62
2024/01/12 12:59:22;;;;;;;8.57;6.80;;;;;;;;;;5052781;28;20282;-62
2024/01/12 13:01:49;;;;;;;12.35;8.18;;;;;;;;;;5052544;28;20228;-62
2024/01/12 13:04:16;;;;;;;10.05;6.38;;;;;;;;;;5052713;28;20190;-62
2024/01/12 13:06:43;;;;;;;16.33;8.27;;;;;;;;;;5052750;28;20228;-62
2024/01/12 13:09:10;;;;;;;10.82;7.65;;;;;;;;;;5052503;28;20304;-62
2024/01/12 13:11:37;;;;;;;11.90;8.35;;;;;;;;;;5052550;28;20277;-62
2024/01/12 13:14:05;;;;;;;12.95;7.57;;;;;;;;;;5052728;28;20596;-62
2024/01/12 13:16:33;;;;;;;11.25;8.35;;;;;;;;;;5052665;28;20194;-62
2024/01/12 13:19:00;;;;;;;11.02;7.72;;;;;;;;;;5052475;28;20624;-62
2024/01/12 13:21:27;;;;;;;17.13;8.23;;;;;;;;;;5052381;28;20745;-62
2024/01/12 13:23:54;;;;;;;13.13;8.45;;;;;;;;;;5053596;28;20229;-62
2024/01/12 13:26:22;;;;;;;10.75;7.28;;;;;;;;;;5056732;28;20185;-62
2024/01/12 13:28:49;;;;;;;11.07;7.38;;;;;;;;;;5056417;28;20220;-62
2024/01/12 13:31:16;;;;;;;6.95;5.90;;;;;;;;;;5056431;28;20190;-62
2024/01/12 13:33:44;;;;;;;9.60;7.75;;;;;;;;;;5056196;28;20281;-62
2024/01/12 13:36:13;;;;;;;13.25;6.40;;;;;;;;;;5056320;28;20288;-62
2024/01/12 13:38:40;;;;;;;12.15;6.45;;;;;;;;;;5056237;28;20222;-62
2024/01/12 13:41:07;;;;;;;15.77;8.52;;;;;;;;;;5056274;28;20284;-62
2024/01/12 13:43:34;;;;;;;12.57;7.93;;;;;;;;;;5056145;28;20194;-62
2024/01/12 13:46:03;;;;;;;16.75;6.95;;;;;;;;;;5056356;28;20190;-62
2024/01/12 13:48:31;;;;;;;13.93;8.02;;;;;;;;;;5055918;28;20196;-62
2024/01/12 13:50:59;;;;;;;12.13;7.63;;;;;;;;;;5055954;28;20643;-62
2024/01/12 13:53:26;;;;;;;12.98;7.07;;;;;;;;;;5055834;28;20672;-62
2024/01/12 13:55:53;;;;;;;14.43;8.38;;;;;;;;;;5055994;28;20573;-62
2024/01/12 13:58:20;;;;;;;15.55;9.93;;;;;;;;;;5056039;28;20186;-62
2024/01/12 14:00:47;;;;;;;12.88;7.93;;;;;;;;;;5055873;28;20197;-62
2024/01/12 14:03:15;;;;;;;14.00;8.25;;;;;;;;;;5055769;28;20221;-62
2024/01/12 14:05:42;;;;;;;14.35;8.60;;;;;;;;;;5055535;28;20278;-62
2024/01/12 14:08:12;;;;;;;16.80;8.75;;;;;;;;;;5055746;28;20212;-62
2024/01/12 14:10:39;;;;;;;13.57;8.57;;;;;;;;;;5055597;28;20344;-62
2024/01/12 14:13:06;;;;;;;25.67;10.48;;;;;;;;;;5055557;28;20276;-62
2024/01/12 14:15:33;;;;;;;17.55;9.80;;;;;;;;;;5055521;28;20194;-62
2024/01/12 14:18:00;;;;;;;15.88;10.10;;;;;;;;;;5055435;28;20193;-62
2024/01/12 14:20:27;;;;;;;19.13;10.10;;;;;;;;;;5055486;28;20312;-62
2024/01/12 14:22:54;;;;;;;17.80;9.75;;;;;;;;;;5055561;28;20280;-62
2024/01/12 14:25:23;;;;;;;11.95;8.18;;;;;;;;;;5055327;28;20278;-62